createdAt,value
2024-05-09T00:00:36.189Z,12.55
2024-05-09T00:03:10.393Z,12.47
2024-05-09T00:05:40.228Z,12.47
2024-05-09T00:08:08.547Z,12.45
2024-05-09T00:10:37.960Z,12.38
2024-05-09T00:13:07.169Z,12.33
2024-05-09T00:15:34.780Z,12.29
2024-05-09T00:18:02.651Z,12.26
2024-05-09T00:20:37.419Z,12.23
2024-05-09T00:23:07.972Z,12.24
2024-05-09T00:25:35.292Z,12.24
2024-05-09T00:28:02.360Z,12.23
2024-05-09T00:30:34.374Z,12.18
2024-05-09T00:33:04.908Z,12.12
2024-05-09T00:35:32.545Z,12.14
2024-05-09T00:37:59.747Z,12.13
2024-05-09T00:40:35.743Z,12.09
2024-05-09T00:43:06.778Z,12.06
2024-05-09T00:45:34.735Z,12.06
2024-05-09T00:48:05.000Z,12.02
2024-05-09T00:50:36.710Z,12.00
2024-05-09T00:53:06.173Z,11.98
2024-05-09T00:55:35.255Z,11.97
2024-05-09T00:58:03.091Z,11.96
2024-05-09T01:00:37.848Z,11.91
2024-05-09T01:03:07.507Z,11.91
2024-05-09T01:05:35.396Z,11.86
2024-05-09T01:08:03.402Z,11.84
2024-05-09T01:10:34.549Z,11.82
2024-05-09T01:13:03.536Z,11.79
2024-05-09T01:15:30.190Z,11.76
2024-05-09T01:17:57.864Z,11.76
2024-05-09T01:20:36.462Z,11.72
2024-05-09T01:23:08.974Z,11.71
2024-05-09T01:25:36.007Z,11.68
2024-05-09T01:28:02.651Z,11.68
2024-05-09T01:30:34.694Z,11.66
2024-05-09T01:33:04.973Z,11.66
2024-05-09T01:35:32.543Z,11.65
2024-05-09T01:37:59.278Z,11.61
2024-05-09T01:40:36.143Z,11.59
2024-05-09T01:43:05.794Z,11.58
2024-05-09T01:45:32.470Z,11.54
2024-05-09T01:47:59.313Z,11.51
2024-05-09T01:50:37.162Z,11.47
2024-05-09T01:53:07.834Z,11.40
2024-05-09T01:55:34.592Z,11.41
2024-05-09T01:58:01.317Z,11.37
2024-05-09T02:00:37.970Z,11.30
2024-05-09T02:03:15.529Z,11.30
2024-05-09T02:05:48.079Z,11.30
2024-05-09T02:08:17.609Z,11.27
2024-05-09T02:10:45.851Z,11.26
2024-05-09T02:13:13.338Z,11.27
2024-05-09T02:15:40.161Z,11.24
2024-05-09T02:18:07.586Z,11.20
2024-05-09T02:20:36.952Z,11.17
2024-05-09T02:23:06.158Z,11.14
2024-05-09T02:25:33.763Z,11.12
2024-05-09T02:28:00.446Z,11.07
2024-05-09T02:30:37.824Z,11.08
2024-05-09T02:33:08.703Z,11.08
2024-05-09T02:35:36.318Z,11.04
2024-05-09T02:38:03.520Z,11.01
2024-05-09T02:40:36.686Z,10.97
2024-05-09T02:43:10.590Z,10.94
2024-05-09T02:45:41.690Z,10.90
2024-05-09T02:48:13.233Z,10.84
2024-05-09T02:50:41.225Z,10.80
2024-05-09T02:53:08.899Z,10.79
2024-05-09T02:55:36.352Z,10.80
2024-05-09T02:58:03.061Z,10.74
2024-05-09T03:00:38.300Z,10.69
2024-05-09T03:03:09.035Z,10.64
2024-05-09T03:05:37.379Z,10.66
2024-05-09T03:08:04.646Z,10.66
2024-05-09T03:10:36.085Z,10.64
2024-05-09T03:13:14.030Z,10.61
2024-05-09T03:15:42.623Z,10.58
2024-05-09T03:18:09.873Z,10.52
2024-05-09T03:20:37.934Z,10.48
2024-05-09T03:23:08.096Z,10.46
2024-05-09T03:25:35.931Z,10.43
2024-05-09T03:28:02.726Z,10.40
2024-05-09T03:30:38.143Z,10.37
2024-05-09T03:33:13.580Z,10.36
2024-05-09T03:35:41.377Z,10.36
2024-05-09T03:38:08.119Z,10.35
2024-05-09T03:40:34.747Z,10.34
2024-05-09T03:43:01.514Z,10.34
2024-05-09T03:45:28.150Z,10.35
2024-05-09T03:47:55.102Z,10.29
2024-05-09T03:50:29.919Z,10.28
2024-05-09T03:53:03.811Z,10.29
2024-05-09T03:55:31.118Z,10.29
2024-05-09T03:57:57.889Z,10.27
2024-05-09T04:00:31.454Z,10.30
2024-05-09T04:03:06.239Z,10.29
2024-05-09T04:05:35.147Z,10.34
2024-05-09T04:08:02.339Z,10.37
2024-05-09T04:10:33.542Z,10.38
2024-05-09T04:13:01.874Z,10.41
2024-05-09T04:15:28.703Z,10.42
2024-05-09T04:17:55.669Z,10.42
2024-05-09T04:20:33.105Z,10.45
2024-05-09T04:23:11.258Z,10.50
2024-05-09T04:25:38.383Z,10.51
2024-05-09T04:28:05.548Z,10.57
2024-05-09T04:30:38.081Z,10.58
2024-05-09T04:33:10.472Z,10.66
2024-05-09T04:35:39.286Z,10.71
2024-05-09T04:38:06.468Z,10.75
2024-05-09T04:40:36.184Z,10.82
2024-05-09T04:43:13.600Z,10.83
2024-05-09T04:45:40.729Z,10.86
2024-05-09T04:48:08.055Z,10.91
2024-05-09T04:50:38.254Z,10.94
2024-05-09T04:53:08.358Z,10.97
2024-05-09T04:55:36.562Z,11.08
2024-05-09T04:58:03.354Z,11.15
2024-05-09T05:00:35.961Z,11.23
2024-05-09T05:03:10.509Z,11.32
2024-05-09T05:05:42.418Z,11.35
2024-05-09T05:08:13.698Z,11.43
2024-05-09T05:10:41.297Z,11.50
2024-05-09T05:13:17.968Z,11.48
2024-05-09T05:15:49.957Z,11.52
2024-05-09T05:18:17.040Z,11.57
2024-05-09T05:20:44.768Z,11.61
2024-05-09T05:23:16.161Z,11.66
2024-05-09T05:25:43.393Z,11.76
2024-05-09T05:28:10.544Z,11.73
2024-05-09T05:30:38.257Z,11.71
2024-05-09T05:33:07.090Z,11.74
2024-05-09T05:35:34.873Z,11.85
2024-05-09T05:38:02.049Z,11.98
2024-05-09T05:40:36.208Z,12.11
2024-05-09T05:43:08.903Z,12.19
2024-05-09T05:45:35.769Z,12.30
2024-05-09T05:48:06.786Z,12.39
2024-05-09T05:50:36.851Z,12.47
2024-05-09T05:53:07.732Z,12.36
2024-05-09T05:55:35.628Z,12.40
2024-05-09T05:58:03.084Z,12.44
2024-05-09T06:00:37.419Z,12.44
2024-05-09T06:03:06.361Z,12.60
2024-05-09T06:05:33.494Z,12.79
2024-05-09T06:08:00.445Z,12.90
2024-05-09T06:10:36.994Z,13.04
2024-05-09T06:13:06.536Z,13.18
2024-05-09T06:15:33.225Z,13.23
2024-05-09T06:18:00.115Z,13.17
2024-05-09T06:20:34.962Z,13.18
2024-05-09T06:23:04.931Z,13.22
2024-05-09T06:25:32.202Z,13.18
2024-05-09T06:28:00.500Z,13.13
2024-05-09T06:30:36.619Z,13.18
2024-05-09T06:33:07.477Z,13.19
2024-05-09T06:35:34.477Z,13.30
2024-05-09T06:38:01.749Z,13.43
2024-05-09T06:40:36.547Z,13.43
2024-05-09T06:43:11.130Z,13.50
2024-05-09T06:45:39.789Z,13.73
2024-05-09T06:48:10.626Z,13.79
2024-05-09T06:50:39.241Z,13.94
2024-05-09T06:53:07.615Z,14.29
2024-05-09T06:55:34.613Z,14.72
2024-05-09T06:58:01.334Z,15.20
2024-05-09T07:00:35.657Z,15.80
2024-05-09T07:03:16.382Z,16.57
2024-05-09T07:05:46.433Z,17.14
2024-05-09T07:08:14.114Z,17.52
2024-05-09T07:10:41.096Z,17.87
2024-05-09T07:13:09.171Z,18.18
2024-05-09T07:15:35.853Z,18.48
2024-05-09T07:18:18.741Z,18.81
2024-05-09T07:20:47.518Z,19.17
2024-05-09T07:23:14.792Z,19.46
2024-05-09T07:25:42.035Z,19.77
2024-05-09T07:28:14.043Z,20.07
2024-05-09T07:30:41.430Z,20.33
2024-05-09T07:33:08.348Z,20.44
2024-05-09T07:35:35.449Z,20.47
2024-05-09T07:38:02.340Z,20.63
2024-05-09T07:40:35.563Z,20.70
2024-05-09T07:43:08.439Z,20.41
2024-05-09T07:52:32.601Z,20.43
2024-05-09T07:55:53.856Z,20.37
2024-05-09T07:58:20.655Z,20.38
2024-05-09T08:00:47.413Z,20.50
2024-05-09T08:03:14.258Z,20.62
2024-05-09T08:05:41.179Z,20.68
2024-05-09T08:08:08.081Z,20.67
2024-05-09T08:10:35.286Z,20.54
2024-05-09T08:13:02.246Z,20.49
2024-05-09T08:15:29.297Z,20.55
2024-05-09T08:17:56.509Z,20.61
2024-05-09T08:20:30.911Z,20.68
2024-05-09T08:23:01.523Z,20.65
2024-05-09T08:25:28.603Z,20.53
2024-05-09T08:27:55.325Z,20.45
2024-05-09T08:30:30.064Z,20.42
2024-05-09T08:33:04.082Z,20.36
2024-05-09T08:35:30.886Z,20.44
2024-05-09T08:37:57.709Z,20.35
2024-05-09T08:40:31.099Z,20.25
2024-05-09T08:43:03.044Z,20.19
2024-05-09T08:45:31.327Z,19.93
2024-05-09T08:48:01.512Z,19.91
2024-05-09T08:50:35.946Z,20.02
2024-05-09T08:53:05.966Z,20.12
2024-05-09T08:55:32.804Z,20.34
2024-05-09T08:58:01.361Z,20.46
2024-05-09T09:00:36.221Z,20.42
2024-05-09T09:03:06.778Z,20.38
2024-05-09T09:05:38.025Z,20.50
2024-05-09T09:08:08.254Z,20.70
2024-05-09T09:10:35.980Z,20.82
2024-05-09T09:13:09.603Z,20.88
2024-05-09T09:15:49.985Z,20.95
2024-05-09T09:18:17.763Z,20.92
2024-05-09T09:20:45.023Z,20.94
2024-05-09T09:23:16.884Z,21.13
2024-05-09T09:25:43.677Z,21.35
2024-05-09T09:28:10.600Z,21.47
2024-05-09T09:30:41.402Z,21.57
2024-05-09T09:33:11.888Z,21.59
2024-05-09T09:35:42.163Z,21.51
2024-05-09T09:38:10.633Z,21.45
2024-05-09T09:40:45.125Z,21.47
2024-05-09T09:43:19.632Z,21.55
2024-05-09T09:45:50.029Z,21.37
2024-05-09T09:48:17.472Z,21.40
2024-05-09T09:50:45.396Z,21.56
2024-05-09T09:53:14.035Z,21.54
2024-05-09T09:55:42.030Z,21.32
2024-05-09T09:58:13.243Z,21.48
2024-05-09T10:00:41.096Z,21.72
2024-05-09T10:03:08.032Z,21.90
2024-05-09T10:05:35.388Z,22.03
2024-05-09T10:08:07.287Z,22.19
2024-05-09T10:10:35.960Z,22.37
2024-05-09T10:13:07.863Z,22.61
2024-05-09T10:15:54.603Z,22.26
2024-05-09T10:18:27.293Z,21.99
2024-05-09T10:20:56.448Z,22.03
2024-05-09T10:23:27.817Z,22.09
2024-05-09T10:25:59.872Z,22.38
2024-05-09T10:28:33.769Z,22.63
2024-05-09T10:31:14.143Z,22.68
2024-05-09T10:33:49.974Z,22.61
2024-05-09T10:36:24.500Z,22.44
2024-05-09T10:38:53.115Z,22.17
2024-05-09T10:41:20.848Z,21.94
2024-05-09T10:43:48.339Z,22.03
2024-05-09T10:46:15.960Z,22.11
2024-05-09T10:48:44.434Z,22.21
2024-05-09T10:51:11.780Z,22.24
2024-05-09T10:53:42.670Z,22.38
2024-05-09T10:56:09.797Z,22.64
2024-05-09T10:58:36.553Z,22.73
2024-05-09T11:01:06.763Z,22.74
2024-05-09T11:03:35.018Z,22.54
2024-05-09T11:06:02.464Z,22.48
2024-05-09T11:08:31.665Z,22.36
2024-05-09T11:10:59.751Z,22.28
2024-05-09T11:13:31.149Z,22.11
2024-05-09T11:16:01.807Z,21.95
2024-05-09T11:18:33.802Z,21.97
2024-05-09T11:21:11.088Z,22.16
2024-05-09T11:23:38.057Z,22.47
2024-05-09T11:26:05.013Z,22.68
2024-05-09T11:28:31.726Z,22.89
2024-05-09T11:31:09.764Z,22.94
2024-05-09T11:33:41.566Z,23.19
2024-05-09T11:36:09.585Z,23.29
2024-05-09T11:38:36.684Z,23.48
2024-05-09T11:41:04.992Z,23.66
2024-05-09T11:43:32.140Z,23.90
2024-05-09T11:45:59.499Z,24.03
2024-05-09T11:48:26.901Z,23.93
2024-05-09T11:50:55.075Z,23.96
2024-05-09T11:53:21.888Z,23.96
2024-05-09T11:55:48.627Z,24.04
2024-05-09T11:58:17.801Z,24.09
2024-05-09T12:00:45.472Z,24.14
2024-05-09T12:03:12.498Z,24.03
2024-05-09T12:05:39.367Z,24.07
2024-05-09T12:08:06.955Z,24.21
2024-05-09T12:10:35.813Z,24.32
2024-05-09T12:13:05.814Z,24.27
2024-05-09T12:15:36.426Z,24.06
2024-05-09T12:18:04.788Z,23.77
2024-05-09T12:20:37.519Z,23.50
2024-05-09T12:23:07.405Z,23.25
2024-05-09T12:25:34.918Z,23.25
2024-05-09T12:28:01.926Z,23.50
2024-05-09T12:30:36.143Z,23.64
2024-05-09T12:33:08.054Z,23.65
2024-05-09T12:35:34.971Z,23.60
2024-05-09T12:38:01.700Z,23.72
2024-05-09T12:40:35.629Z,23.90
2024-05-09T12:43:08.696Z,24.19
2024-05-09T12:45:36.762Z,24.34
2024-05-09T12:48:06.998Z,24.24
2024-05-09T12:50:34.758Z,24.25
2024-05-09T12:53:03.042Z,24.24
2024-05-09T12:55:37.233Z,24.18
2024-05-09T12:58:11.521Z,24.12
2024-05-09T13:00:38.513Z,24.05
2024-05-09T13:03:05.551Z,23.93
2024-05-09T13:05:32.432Z,23.89
2024-05-09T13:08:00.616Z,23.76
2024-05-09T13:10:32.101Z,23.65
2024-05-09T13:13:01.019Z,23.62
2024-05-09T13:15:30.153Z,23.71
2024-05-09T13:18:02.864Z,23.95
2024-05-09T13:20:34.381Z,24.09
2024-05-09T13:23:07.500Z,24.01
2024-05-09T13:25:35.256Z,23.86
2024-05-09T13:28:03.370Z,23.83
2024-05-09T13:30:38.807Z,23.78
2024-05-09T13:33:08.980Z,23.77
2024-05-09T13:35:36.294Z,23.75
2024-05-09T13:38:04.469Z,23.85
2024-05-09T13:40:34.671Z,23.91
2024-05-09T13:43:06.283Z,23.79
2024-05-09T13:45:33.854Z,23.68
2024-05-09T13:48:02.097Z,23.62
2024-05-09T13:50:34.563Z,23.53
2024-05-09T13:53:06.208Z,23.52
2024-05-09T13:55:34.276Z,23.59
2024-05-09T13:58:01.424Z,23.60
2024-05-09T14:00:41.672Z,23.54
2024-05-09T14:03:13.959Z,23.49
2024-05-09T14:05:41.263Z,23.49
2024-05-09T14:08:08.719Z,23.40
2024-05-09T14:10:35.768Z,23.35
2024-05-09T14:13:02.589Z,23.37
2024-05-09T14:15:29.528Z,23.36
2024-05-09T14:17:56.318Z,23.33
2024-05-09T14:20:30.258Z,23.29
2024-05-09T14:22:59.375Z,23.24
2024-05-09T14:25:28.423Z,23.19
2024-05-09T14:27:57.699Z,23.26
2024-05-09T14:30:31.194Z,23.31
2024-05-09T14:33:04.348Z,23.31
2024-05-09T14:35:31.287Z,23.21
2024-05-09T14:37:58.228Z,23.23
2024-05-09T14:40:37.164Z,23.24
2024-05-09T14:43:09.755Z,23.18
2024-05-09T14:45:36.856Z,23.20
2024-05-09T14:48:04.358Z,23.16
2024-05-09T14:50:36.648Z,23.17
2024-05-09T14:53:07.596Z,23.21
2024-05-09T14:55:36.679Z,23.20
2024-05-09T14:58:06.053Z,23.21
2024-05-09T15:00:36.094Z,23.14
2024-05-09T15:03:05.204Z,23.09
2024-05-09T15:05:32.083Z,23.10
2024-05-09T15:07:59.521Z,23.13
2024-05-09T15:10:33.980Z,23.20
2024-05-09T15:13:04.539Z,23.26
2024-05-09T15:15:31.770Z,23.15
2024-05-09T15:17:59.494Z,23.02
2024-05-09T15:20:33.480Z,23.03
2024-05-09T15:23:03.662Z,23.00
2024-05-09T15:25:30.758Z,23.00
2024-05-09T15:27:57.670Z,22.93
2024-05-09T15:30:30.764Z,22.81
2024-05-09T15:33:00.985Z,22.79
2024-05-09T15:35:28.105Z,22.83
2024-05-09T15:37:55.404Z,22.91
2024-05-09T15:40:31.285Z,22.99
2024-05-09T15:43:05.781Z,23.02
2024-05-09T15:45:33.341Z,23.02
2024-05-09T15:48:00.671Z,22.96
2024-05-09T15:50:36.311Z,22.85
2024-05-09T15:53:09.878Z,22.76
2024-05-09T15:55:40.803Z,22.66
2024-05-09T15:58:08.044Z,22.62
2024-05-09T16:00:39.563Z,22.60
2024-05-09T16:03:14.407Z,22.57
2024-05-09T16:05:44.744Z,22.56
2024-05-09T16:08:12.559Z,22.55
2024-05-09T16:10:44.256Z,22.47
2024-05-09T16:13:12.556Z,22.40
2024-05-09T16:15:39.518Z,22.24
2024-05-09T16:18:06.828Z,22.16
2024-05-09T16:20:39.220Z,22.14
2024-05-09T16:23:08.796Z,22.06
2024-05-09T16:25:35.865Z,21.90
2024-05-09T16:28:06.369Z,21.67
2024-05-09T16:30:36.387Z,21.41
2024-05-09T16:33:04.947Z,21.36
2024-05-09T16:35:32.539Z,21.32
2024-05-09T16:38:01.398Z,21.25
2024-05-09T16:40:36.298Z,21.23
2024-05-09T16:43:06.987Z,21.16
2024-05-09T16:45:34.234Z,21.07
2024-05-09T16:48:01.678Z,20.93
2024-05-09T16:50:33.129Z,20.85
2024-05-09T16:53:02.542Z,20.73
2024-05-09T16:55:29.331Z,20.64
2024-05-09T16:57:57.274Z,20.59
2024-05-09T17:00:35.642Z,20.59
2024-05-09T17:03:09.765Z,20.60
2024-05-09T17:05:37.237Z,20.60
2024-05-09T17:08:04.578Z,20.48
2024-05-09T17:10:34.143Z,20.34
2024-05-09T17:13:04.658Z,20.28
2024-05-09T17:15:33.109Z,20.29
2024-05-09T17:18:00.476Z,20.29
2024-05-09T17:20:33.057Z,20.36
2024-05-09T17:23:03.549Z,20.39
2024-05-09T17:25:30.326Z,20.51
2024-05-09T17:27:57.338Z,20.52
2024-05-09T17:30:31.524Z,20.49
2024-05-09T17:33:03.345Z,20.51
2024-05-09T17:35:38.316Z,20.50
2024-05-09T17:38:08.740Z,20.53
2024-05-09T17:40:37.529Z,20.51
2024-05-09T17:43:07.689Z,20.58
2024-05-09T17:45:38.533Z,20.60
2024-05-09T17:48:06.447Z,20.55
2024-05-09T17:50:36.092Z,20.48
2024-05-09T17:53:05.283Z,20.31
2024-05-09T17:55:32.289Z,20.17
2024-05-09T17:57:59.353Z,20.12
2024-05-09T18:02:56.027Z,19.95
2024-05-09T18:05:22.981Z,19.90
2024-05-09T18:07:49.825Z,19.82
2024-05-09T18:10:22.655Z,19.72
2024-05-09T18:12:56.427Z,19.64
2024-05-09T18:15:23.184Z,19.62
2024-05-09T18:17:50.262Z,19.56
2024-05-09T18:20:23.849Z,19.47
2024-05-09T18:22:59.083Z,19.39
2024-05-09T18:25:25.955Z,19.38
2024-05-09T18:27:52.699Z,19.34
2024-05-09T18:30:27.426Z,19.31
2024-05-09T18:32:58.661Z,19.32
2024-05-09T18:35:25.368Z,19.28
2024-05-09T18:37:53.018Z,19.27
2024-05-09T18:40:27.342Z,19.26
2024-05-09T18:42:58.023Z,19.22
2024-05-09T18:45:24.847Z,19.14
2024-05-09T18:47:51.892Z,19.12
2024-05-09T18:50:28.457Z,19.12
2024-05-09T18:53:01.483Z,19.10
2024-05-09T18:55:28.186Z,19.06
2024-05-09T18:57:54.932Z,19.01
2024-05-09T19:00:32.898Z,18.97
2024-05-09T19:03:05.620Z,18.93
2024-05-09T19:05:33.489Z,18.93
2024-05-09T19:08:00.508Z,18.88
2024-05-09T19:10:33.711Z,18.82
2024-05-09T19:13:04.329Z,18.77
2024-05-09T19:15:33.792Z,18.71
2024-05-09T19:18:00.783Z,18.68
2024-05-09T19:20:33.380Z,18.64
2024-05-09T19:23:01.647Z,18.62
2024-05-09T19:25:28.350Z,18.60
2024-05-09T19:27:55.082Z,18.54
2024-05-09T19:30:37.276Z,18.46
2024-05-09T19:33:31.990Z,18.39
2024-05-09T19:36:38.672Z,18.35
2024-05-09T19:39:11.930Z,18.28
2024-05-09T19:42:25.896Z,18.19
2024-05-09T19:44:52.317Z,18.10
2024-05-09T19:47:19.063Z,18.05
2024-05-09T19:49:45.731Z,17.97
2024-05-09T19:52:12.443Z,17.88
2024-05-09T19:54:39.125Z,17.83
2024-05-09T19:57:05.939Z,17.76
2024-05-09T19:59:32.916Z,17.71
2024-05-09T20:01:59.723Z,17.65
2024-05-09T20:04:26.680Z,17.60
2024-05-09T20:06:53.404Z,17.54
2024-05-09T20:09:20.283Z,17.49
2024-05-09T20:11:46.977Z,17.44
2024-05-09T20:14:13.637Z,17.39
2024-05-09T20:16:41.190Z,17.34
2024-05-09T20:19:07.924Z,17.30
2024-05-09T20:21:34.687Z,17.26
2024-05-09T20:24:01.390Z,17.26
2024-05-09T20:26:30.864Z,17.25
2024-05-09T20:28:57.684Z,17.22
2024-05-09T20:31:24.607Z,17.19
2024-05-09T20:33:51.513Z,17.20
2024-05-09T20:36:18.219Z,17.18
2024-05-09T20:38:44.881Z,17.16
2024-05-09T20:41:11.553Z,17.15
2024-05-09T20:43:38.209Z,17.09
2024-05-09T20:46:05.210Z,17.05
2024-05-09T20:48:32.058Z,17.01
2024-05-09T20:50:58.805Z,16.98
2024-05-09T20:53:25.523Z,16.91
2024-05-09T20:55:52.298Z,16.84
2024-05-09T20:58:18.979Z,16.79
2024-05-09T21:00:46.477Z,16.76
2024-05-09T21:03:16.315Z,16.80
2024-05-09T21:05:44.195Z,16.80
2024-05-09T21:08:11.184Z,16.80
2024-05-09T21:10:38.082Z,16.77
2024-05-09T21:13:06.343Z,16.71
2024-05-09T21:15:34.022Z,16.67
2024-05-09T21:18:00.898Z,16.63
2024-05-09T21:20:31.526Z,16.60
2024-05-09T21:22:59.966Z,16.59
2024-05-09T21:25:26.901Z,16.58
2024-05-09T21:27:53.699Z,16.56
2024-05-09T21:32:50.981Z,16.38
2024-05-09T21:35:18.852Z,16.35
2024-05-09T21:37:45.665Z,16.34
2024-05-09T21:40:17.000Z,16.29
2024-05-09T21:42:50.759Z,16.22
2024-05-09T21:45:17.414Z,16.13
2024-05-09T21:47:44.262Z,16.07
2024-05-09T21:50:18.678Z,16.00
2024-05-09T21:52:49.940Z,15.93
2024-05-09T21:55:16.745Z,15.86
2024-05-09T21:57:43.498Z,15.85
2024-05-09T22:00:27.924Z,15.78
2024-05-09T22:03:01.548Z,15.72
2024-05-09T22:05:28.366Z,15.69
2024-05-09T22:07:55.172Z,15.69
2024-05-09T22:10:26.550Z,15.61
2024-05-09T22:12:59.268Z,15.54
2024-05-09T22:15:26.020Z,15.52
2024-05-09T22:17:55.329Z,15.50
2024-05-09T22:20:29.033Z,15.47
2024-05-09T22:23:03.133Z,15.46
2024-05-09T22:25:30.870Z,15.48
2024-05-09T22:27:58.579Z,15.52
2024-05-09T22:30:34.075Z,15.50
2024-05-09T22:33:05.743Z,15.47
2024-05-09T22:35:32.766Z,15.49
2024-05-09T22:37:59.534Z,15.50
2024-05-09T22:40:38.080Z,15.49
2024-05-09T22:43:13.100Z,15.43
2024-05-09T22:45:40.004Z,15.41
2024-05-09T22:48:10.235Z,15.38
2024-05-09T22:50:37.030Z,15.36
2024-05-09T22:53:03.756Z,15.33
2024-05-09T22:55:30.509Z,15.29
2024-05-09T22:58:00.097Z,15.27
2024-05-09T23:00:31.644Z,15.23
2024-05-09T23:03:02.927Z,15.18
2024-05-09T23:05:32.300Z,15.11
2024-05-09T23:08:01.348Z,15.03
2024-05-09T23:10:35.450Z,14.95
2024-05-09T23:13:04.414Z,14.87
2024-05-09T23:15:31.356Z,14.80
2024-05-09T23:17:58.683Z,14.73
2024-05-09T23:20:35.457Z,14.66
2024-05-09T23:23:09.613Z,14.56
2024-05-09T23:25:37.554Z,14.50
2024-05-09T23:28:05.023Z,14.47
2024-05-09T23:30:37.682Z,14.41
2024-05-09T23:33:07.845Z,14.38
2024-05-09T23:35:34.860Z,14.34
2024-05-09T23:38:01.714Z,14.26
2024-05-09T23:40:37.672Z,14.16
2024-05-09T23:43:08.239Z,14.09
2024-05-09T23:45:35.298Z,14.01
2024-05-09T23:48:02.809Z,13.96
2024-05-09T23:50:35.419Z,13.92
2024-05-09T23:53:05.855Z,13.91
2024-05-09T23:55:32.980Z,13.88
2024-05-09T23:58:00.235Z,13.83
